Time;durP1;ratioP1;P1;durP2;ratioP2;P2;SDS_P1;SDS_P2;PMS_P1;PMS_P2;Temp;Humidity;BMP_temperature;BMP_pressure;BME280_temperature;BME280_humidity;BME280_pressure;Samples;Min_cycle;Max_cycle;Signal;HPM_P1;HPM_P2
2023/04/28 00:01:21;;;;;;;8.13;3.77;;;;;;;7.50;58.58;95053.00;4993172;28;20220;-76
2023/04/28 00:03:47;;;;;;;7.20;3.70;;;;;;;7.51;58.99;95062.50;4980663;28;20427;-76
2023/04/28 00:06:13;;;;;;;7.53;3.80;;;;;;;7.47;59.57;95049.94;4997998;28;20192;-76
2023/04/28 00:08:40;;;;;;;7.68;3.58;;;;;;;7.29;59.38;95060.84;5005833;28;20945;-76
2023/04/28 00:11:09;;;;;;;7.13;3.92;;;;;;;7.25;59.97;95061.41;5008184;28;20453;-76
2023/04/28 00:13:35;;;;;;;8.43;3.20;;;;;;;7.17;59.53;95062.34;5010225;28;20195;-76
2023/04/28 00:16:01;;;;;;;4.30;3.00;;;;;;;7.28;60.10;95061.84;5003425;28;20702;-76
2023/04/28 00:18:26;;;;;;;6.67;2.70;;;;;;;7.30;59.14;95059.84;4992727;28;20169;-76
2023/04/28 00:20:51;;;;;;;5.57;2.70;;;;;;;7.02;59.55;95062.34;5009506;28;20454;-76
2023/04/28 00:23:17;;;;;;;8.03;2.83;;;;;;;7.00;60.77;95061.75;5010827;28;20429;-76
2023/04/28 00:25:42;;;;;;;4.17;2.50;;;;;;;7.03;60.33;95066.59;5011694;28;20431;-76
2023/04/28 00:28:07;;;;;;;5.18;2.97;;;;;;;6.91;60.71;95054.19;5010946;28;20863;-77
2023/04/28 00:30:33;;;;;;;5.87;2.50;;;;;;;6.91;61.05;95064.66;5009097;28;20497;-77
2023/04/28 00:32:58;;;;;;;3.20;2.77;;;;;;;7.02;60.40;95057.13;5012414;28;20415;-77
2023/04/28 00:35:23;;;;;;;7.70;2.30;;;;;;;7.10;60.91;95064.03;5005150;28;20215;-76
2023/04/28 00:37:49;;;;;;;3.73;2.70;;;;;;;7.16;61.24;95066.75;4992918;28;20212;-76
2023/04/28 00:40:14;;;;;;;3.07;2.50;;;;;;;7.17;60.88;95070.19;4997530;28;20749;-76
2023/04/28 00:42:40;;;;;;;3.60;2.33;;;;;;;7.18;59.87;95074.41;5008630;28;20411;-77
2023/04/28 00:45:06;;;;;;;5.13;2.60;;;;;;;7.17;59.83;95078.03;5000357;28;20180;-77
2023/04/28 00:47:33;;;;;;;3.93;2.57;;;;;;;6.98;61.51;95066.34;5003583;28;20208;-76
2023/04/28 00:50:00;;;;;;;5.03;2.75;;;;;;;6.66;61.18;95080.59;4990924;28;20431;-76
2023/04/28 00:52:26;;;;;;;4.00;2.45;;;;;;;6.39;62.10;95074.22;4996371;28;20455;-76
2023/04/28 00:54:52;;;;;;;4.45;2.70;;;;;;;6.09;62.97;95075.16;5010437;28;20538;-76
2023/04/28 00:57:18;;;;;;;4.40;2.63;;;;;;;6.03;63.67;95081.13;5010664;28;20879;-76
2023/04/28 00:59:43;;;;;;;6.15;2.60;;;;;;;6.12;63.57;95080.06;5010377;28;20415;-77
2023/04/28 01:02:16;;;;;;;7.00;2.55;;;;;;;6.18;63.05;95084.56;4994615;28;20412;-76
2023/04/28 01:04:42;;;;;;;4.47;2.43;;;;;;;6.42;62.68;95086.94;5011681;28;20230;-77
2023/04/28 01:07:08;;;;;;;3.35;2.25;;;;;;;6.37;62.56;95084.06;5010553;28;20476;-77
2023/04/28 01:09:33;;;;;;;3.63;2.30;;;;;;;6.39;62.67;95089.91;4994119;28;20264;-77
2023/04/28 01:11:58;;;;;;;5.35;2.83;;;;;;;6.45;62.28;95085.75;4994833;28;20817;-77
2023/04/28 01:14:24;;;;;;;6.47;2.60;;;;;;;6.38;62.85;95087.47;4999913;28;20187;-77
2023/04/28 01:16:50;;;;;;;5.03;2.70;;;;;;;6.38;62.78;95088.28;5009915;28;20425;-76
2023/04/28 01:19:23;;;;;;;7.15;3.20;;;;;;;6.18;63.23;95088.97;5002201;28;20415;-77
2023/04/28 01:21:49;;;;;;;5.35;3.20;;;;;;;5.95;64.30;95089.84;5009974;28;20414;-77
2023/04/28 01:24:16;;;;;;;6.40;3.28;;;;;;;5.93;64.29;95094.41;4997063;28;20431;-76
2023/04/28 01:26:41;;;;;;;6.35;3.50;;;;;;;6.01;64.33;95094.34;4990536;28;20530;-76
2023/04/28 01:29:06;;;;;;;5.47;3.30;;;;;;;5.99;64.79;95088.47;4990487;28;20939;-76
2023/04/28 01:31:32;;;;;;;5.23;2.67;;;;;;;6.06;64.19;95080.75;4991082;28;20435;-77
2023/04/28 01:33:57;;;;;;;7.27;3.77;;;;;;;6.18;63.93;95091.59;4998970;28;20431;-77
2023/04/28 01:36:26;;;;;;;7.28;3.10;;;;;;;6.16;63.21;95088.34;4972834;28;20790;-77
2023/04/28 01:38:51;;;;;;;4.05;2.72;;;;;;;6.25;63.33;95095.09;4997219;28;20430;-77
2023/04/28 01:41:17;;;;;;;10.97;3.47;;;;;;;6.17;62.94;95080.31;4995112;28;20625;-76
2023/04/28 01:43:42;;;;;;;7.63;3.30;;;;;;;6.15;62.38;95089.31;5008134;28;20418;-77
2023/04/28 01:46:11;;;;;;;5.22;3.03;;;;;;;6.08;62.60;95099.69;5006058;28;20439;-77
2023/04/28 01:48:36;;;;;;;5.55;2.83;;;;;;;5.88;62.58;95078.44;5007104;28;20418;-77
2023/04/28 01:51:02;;;;;;;4.10;2.50;;;;;;;5.91;63.93;95087.75;4997792;28;20193;-77
2023/04/28 01:53:27;;;;;;;8.87;2.93;;;;;;;5.76;64.57;95084.25;4989856;28;20426;-77
2023/04/28 01:55:53;;;;;;;5.60;3.17;;;;;;;6.06;64.44;95093.81;5000572;28;20188;-77
2023/04/28 01:58:19;;;;;;;5.00;3.33;;;;;;;6.19;63.13;95095.84;5010557;28;20204;-77
2023/04/28 02:00:45;;;;;;;4.65;2.70;;;;;;;6.07;62.89;95087.59;4990777;28;20965;-76
2023/04/28 02:03:10;;;;;;;4.90;2.65;;;;;;;5.88;63.13;95096.72;4990290;28;20455;-76
2023/04/28 02:05:36;;;;;;;4.55;2.78;;;;;;;5.82;63.75;95096.59;4998068;28;20450;-76
2023/04/28 02:08:01;;;;;;;9.30;2.90;;;;;;;5.82;63.90;95097.41;4994837;28;20239;-76
2023/04/28 02:10:27;;;;;;;3.77;2.43;;;;;;;5.79;63.78;95100.41;5002185;28;20264;-76
2023/04/28 02:12:53;;;;;;;4.40;3.00;;;;;;;5.77;64.41;95096.31;4990484;28;20177;-77
2023/04/28 02:15:18;;;;;;;5.43;2.97;;;;;;;5.71;64.67;95095.22;4997380;28;20419;-77
2023/04/28 02:17:43;;;;;;;8.43;2.90;;;;;;;5.81;64.50;95095.78;4997513;28;20622;-77
2023/04/28 02:20:09;;;;;;;6.97;3.60;;;;;;;5.73;64.87;95097.66;5004369;28;20414;-77
2023/04/28 02:22:35;;;;;;;8.98;3.95;;;;;;;5.70;64.89;95101.44;5001843;28;20521;-77
2023/04/28 02:25:00;;;;;;;4.37;3.17;;;;;;;5.39;65.44;95088.41;4993383;28;20498;-76
2023/04/28 02:27:26;;;;;;;5.53;3.23;;;;;;;5.41;65.85;95104.72;5011077;28;20464;-77
2023/04/28 02:29:52;;;;;;;8.85;3.90;;;;;;;5.51;65.82;95113.16;5001055;28;20417;-76
2023/04/28 02:32:17;;;;;;;6.00;3.33;;;;;;;5.45;65.50;95082.50;5008282;28;20192;-76
2023/04/28 02:34:42;;;;;;;4.10;3.30;;;;;;;5.63;66.05;95093.47;5011273;28;20648;-76
2023/04/28 02:37:08;;;;;;;8.33;4.03;;;;;;;5.75;65.63;95112.16;4993396;28;20912;-76
2023/04/28 02:39:33;;;;;;;10.20;6.23;;;;;;;5.86;65.78;95116.19;4995395;28;20173;-76
2023/04/28 02:41:59;;;;;;;10.37;5.27;;;;;;;5.91;64.88;95109.44;5014261;28;20180;-76
2023/04/28 02:44:24;;;;;;;10.87;4.77;;;;;;;5.92;65.05;95112.88;5003272;28;20180;-76
2023/04/28 02:46:50;;;;;;;7.77;4.60;;;;;;;5.95;65.32;95123.81;5011929;28;20197;-76
2023/04/28 02:49:15;;;;;;;4.40;3.37;;;;;;;5.93;64.23;95119.72;4994269;28;20185;-76
2023/04/28 02:51:40;;;;;;;8.97;4.83;;;;;;;5.77;64.48;95120.66;5009668;28;20505;-76
2023/04/28 02:54:06;;;;;;;17.50;8.93;;;;;;;5.68;65.35;95116.47;5014008;28;20182;-76
2023/04/28 02:56:32;;;;;;;6.33;3.40;;;;;;;5.37;66.07;95121.72;5001097;28;20411;-76
2023/04/28 02:58:58;;;;;;;8.13;3.35;;;;;;;4.97;67.03;95104.47;5004745;28;20865;-76
2023/04/28 03:01:23;;;;;;;9.50;4.00;;;;;;;5.04;67.58;95126.28;4992991;28;20462;-76
2023/04/28 03:03:49;;;;;;;7.35;3.30;;;;;;;5.17;67.40;95134.41;4993553;28;20415;-76
2023/04/28 03:06:14;;;;;;;9.52;4.63;;;;;;;5.27;67.80;95129.78;5000635;28;20518;-76
2023/04/28 03:08:40;;;;;;;5.03;2.40;;;;;;;5.46;66.18;95131.13;4997410;28;20184;-76
2023/04/28 03:11:05;;;;;;;4.03;2.57;;;;;;;5.59;65.91;95135.78;5013595;28;20541;-76
2023/04/28 03:13:31;;;;;;;10.80;5.43;;;;;;;5.65;66.10;95138.50;4997998;28;20177;-76
2023/04/28 03:15:56;;;;;;;6.37;3.67;;;;;;;5.68;65.60;95140.78;5007953;28;20176;-76
2023/04/28 03:18:22;;;;;;;6.30;4.37;;;;;;;5.58;65.88;95121.91;5004768;28;20224;-76
2023/04/28 03:20:48;;;;;;;6.80;4.50;;;;;;;5.69;66.03;95138.97;4976427;28;20705;-76
2023/04/28 03:23:13;;;;;;;8.60;4.13;;;;;;;5.36;65.46;95116.69;4998120;28;20448;-76
2023/04/28 03:25:39;;;;;;;7.37;4.77;;;;;;;5.64;66.74;95151.72;4996630;28;20239;-76
2023/04/28 03:28:04;;;;;;;4.90;3.23;;;;;;;5.66;66.57;95142.75;4993395;28;20221;-76
2023/04/28 03:30:30;;;;;;;8.82;4.25;;;;;;;5.62;65.95;95145.91;5000021;28;20507;-76
2023/04/28 03:32:55;;;;;;;10.80;5.17;;;;;;;5.61;66.99;95162.53;4991813;28;20514;-76
2023/04/28 03:35:21;;;;;;;7.20;4.80;;;;;;;5.63;65.93;95166.59;5007112;28;21099;-76
2023/04/28 03:37:47;;;;;;;10.47;4.90;;;;;;;5.37;64.32;95133.94;5003224;28;20431;-76
2023/04/28 03:40:12;;;;;;;10.33;4.17;;;;;;;5.66;65.02;95176.69;5001115;28;20196;-76
2023/04/28 03:42:37;;;;;;;8.37;5.13;;;;;;;5.85;64.75;95177.25;5000387;28;20190;-76
2023/04/28 03:45:03;;;;;;;8.10;4.47;;;;;;;5.92;63.48;95181.63;5007040;28;20619;-76
2023/04/28 03:47:29;;;;;;;9.63;5.13;;;;;;;5.92;63.08;95183.41;5006569;28;20248;-76
2023/04/28 03:49:54;;;;;;;9.40;4.20;;;;;;;6.01;63.61;95179.75;5004637;28;20729;-75
2023/04/28 03:52:20;;;;;;;6.80;3.90;;;;;;;6.14;62.98;95190.44;5011760;28;20204;-75
2023/04/28 03:54:45;;;;;;;6.27;3.87;;;;;;;6.25;62.32;95191.81;4998840;28;20185;-76
2023/04/28 03:57:11;;;;;;;7.40;4.20;;;;;;;6.19;62.55;95169.81;5003303;28;20181;-75
2023/04/28 03:59:37;;;;;;;7.37;4.57;;;;;;;6.51;62.36;95191.44;5000330;28;20642;-76
2023/04/28 04:02:02;;;;;;;8.53;4.47;;;;;;;6.67;62.46;95193.91;5010790;28;20184;-77
2023/04/28 04:04:28;;;;;;;9.60;4.20;;;;;;;6.90;60.74;95201.69;5005268;28;20172;-75
2023/04/28 04:06:53;;;;;;;11.40;3.70;;;;;;;7.09;60.26;95201.97;4998047;28;20236;-77
2023/04/28 04:09:19;;;;;;;8.67;4.63;;;;;;;7.26;59.09;95205.22;4999407;28;20191;-76
2023/04/28 04:11:44;;;;;;;11.37;3.77;;;;;;;7.47;58.42;95201.84;5005644;28;20259;-76
2023/04/28 04:14:09;;;;;;;8.53;4.00;;;;;;;7.80;57.18;95202.22;5003215;28;20208;-76
2023/04/28 04:16:35;;;;;;;10.67;4.63;;;;;;;8.05;56.67;95206.13;4998985;28;20169;-76
2023/04/28 04:19:01;;;;;;;9.83;3.97;;;;;;;8.41;55.73;95218.41;5001111;28;20183;-77
2023/04/28 04:21:26;;;;;;;11.60;4.40;;;;;;;8.77;54.53;95215.69;4992899;28;20173;-76
2023/04/28 04:23:52;;;;;;;8.77;3.70;;;;;;;9.03;52.89;95200.09;4992595;28;20185;-76
2023/04/28 04:26:17;;;;;;;9.67;4.40;;;;;;;9.54;53.87;95223.41;5002460;28;20274;-76
2023/04/28 04:28:43;;;;;;;7.30;3.27;;;;;;;10.02;52.70;95226.88;5007027;28;20217;-76
2023/04/28 04:31:08;;;;;;;5.77;2.90;;;;;;;10.47;51.19;95220.09;4997369;28;20264;-76
2023/04/28 04:33:34;;;;;;;4.50;3.20;;;;;;;11.03;49.64;95223.13;4994252;28;20188;-75
2023/04/28 04:35:59;;;;;;;6.33;3.43;;;;;;;11.43;47.44;95199.34;4992618;28;20664;-77
2023/04/28 04:38:25;;;;;;;6.20;2.80;;;;;;;11.95;46.69;95211.53;4992907;28;20188;-77
2023/04/28 04:40:51;;;;;;;4.43;2.80;;;;;;;12.61;45.22;95227.03;4991314;28;20188;-77
2023/04/28 04:43:16;;;;;;;12.10;2.93;;;;;;;13.17;44.44;95229.63;4992631;28;20218;-77
2023/04/28 04:45:42;;;;;;;10.57;3.07;;;;;;;13.71;43.30;95230.72;5000646;28;20332;-77
2023/04/28 04:48:08;;;;;;;6.23;2.80;;;;;;;14.38;41.76;95234.97;4992320;28;20185;-78
2023/04/28 04:50:33;;;;;;;6.90;2.80;;;;;;;15.07;40.06;95238.84;4991831;28;20204;-76
2023/04/28 04:52:58;;;;;;;3.20;2.17;;;;;;;15.79;39.14;95244.78;4990951;28;20188;-78
2023/04/28 04:55:24;;;;;;;6.30;3.03;;;;;;;16.52;36.75;95249.41;5000929;28;20222;-79
2023/04/28 04:57:49;;;;;;;4.53;2.20;;;;;;;17.19;35.35;95249.53;5001388;28;20181;-75
2023/04/28 05:00:15;;;;;;;2.53;1.92;;;;;;;17.84;34.08;95255.03;4998045;28;20736;-74
2023/04/28 05:02:41;;;;;;;9.95;2.53;;;;;;;18.59;34.07;95253.59;5011740;28;20259;-76
2023/04/28 05:05:07;;;;;;;5.40;2.08;;;;;;;19.21;32.09;95262.72;5012057;28;20260;-75
2023/04/28 05:07:33;;;;;;;3.85;2.15;;;;;;;19.77;30.35;95228.44;5011834;28;20196;-75
2023/04/28 05:09:59;;;;;;;4.00;1.65;;;;;;;20.47;29.27;95261.94;5011784;28;20183;-75
2023/04/28 05:12:24;;;;;;;2.80;1.95;;;;;;;21.02;28.56;95260.44;4999200;28;20169;-74
2023/04/28 05:14:50;;;;;;;4.32;2.78;;;;;;;21.41;27.37;95256.22;4992345;28;20191;-75
2023/04/28 05:17:15;;;;;;;5.57;1.90;;;;;;;21.82;26.88;95265.00;4992165;28;20184;-75
2023/04/28 05:19:41;;;;;;;7.88;2.30;;;;;;;22.24;26.40;95257.69;4974768;28;20219;-76
2023/04/28 05:22:06;;;;;;;6.88;2.97;;;;;;;22.28;27.13;95266.81;4992404;28;20179;-76
2023/04/28 05:24:32;;;;;;;7.25;2.55;;;;;;;22.08;26.18;95254.25;4974785;28;20220;-79
2023/04/28 05:26:58;;;;;;;6.53;3.15;;;;;;;21.29;30.73;95265.56;4992345;28;20284;-80
2023/04/28 05:29:24;;;;;;;6.18;2.60;;;;;;;20.36;32.16;95262.94;4992411;28;20221;-78
2023/04/28 05:31:49;;;;;;;3.55;2.40;;;;;;;18.96;31.00;95262.50;4992455;28;20204;-79
2023/04/28 05:34:15;;;;;;;7.53;2.50;;;;;;;17.48;33.17;95236.91;4991935;28;20192;-79
2023/04/28 05:36:40;;;;;;;6.47;2.55;;;;;;;16.18;36.17;95256.44;4992008;28;20176;-77
2023/04/28 05:39:06;;;;;;;7.50;2.60;;;;;;;15.68;39.10;95249.03;4991749;28;20271;-78
2023/04/28 05:41:33;;;;;;;9.55;3.85;;;;;;;15.42;38.99;95244.19;4991684;28;20187;-78
2023/04/28 05:43:58;;;;;;;5.30;2.53;;;;;;;15.38;40.31;95245.69;4991765;28;20547;-78
2023/04/28 05:46:23;;;;;;;6.20;3.10;;;;;;;15.38;38.94;95253.66;4998234;28;20205;-77
2023/04/28 05:48:49;;;;;;;3.05;2.60;;;;;;;15.31;40.46;95251.09;4991392;28;20185;-77
2023/04/28 05:51:14;;;;;;;5.55;2.25;;;;;;;15.03;39.56;95209.38;4992111;28;20281;-77
2023/04/28 05:53:40;;;;;;;5.47;2.50;;;;;;;15.18;39.45;95253.19;4992000;28;20196;-76
2023/04/28 05:56:06;;;;;;;7.30;2.45;;;;;;;15.22;38.40;95247.16;4992298;28;20177;-76
2023/04/28 05:58:32;;;;;;;5.95;3.13;;;;;;;14.96;38.54;95231.72;4992030;28;20711;-76
2023/04/28 06:00:57;;;;;;;6.50;2.60;;;;;;;15.17;39.74;95256.88;4993421;28;20191;-76
2023/04/28 06:03:23;;;;;;;5.57;2.20;;;;;;;15.30;39.30;95257.47;4995819;28;20212;-76
2023/04/28 06:05:48;;;;;;;6.23;2.20;;;;;;;15.30;38.45;95240.75;4995737;28;20201;-76
2023/04/28 06:08:14;;;;;;;4.15;2.17;;;;;;;15.52;39.28;95259.53;4995612;28;20181;-76
2023/04/28 06:10:40;;;;;;;4.20;2.67;;;;;;;15.55;39.29;95238.69;4987309;28;20279;-76
2023/04/28 06:13:05;;;;;;;5.35;3.00;;;;;;;15.72;38.70;95247.56;4995616;28;20180;-76
2023/04/28 06:15:32;;;;;;;3.03;2.33;;;;;;;15.10;37.85;95260.44;4995337;28;20181;-76
2023/04/28 06:17:58;;;;;;;4.88;2.30;;;;;;;15.27;39.44;95252.59;4995215;28;20181;-76
2023/04/28 06:20:23;;;;;;;6.40;2.63;;;;;;;15.45;38.42;95257.81;4995376;28;20181;-76
2023/04/28 06:22:49;;;;;;;4.90;2.33;;;;;;;15.85;37.80;95243.81;4995367;28;20673;-76
2023/04/28 06:25:14;;;;;;;5.75;1.95;;;;;;;16.18;36.67;95249.28;4995093;28;20181;-76
2023/04/28 06:27:40;;;;;;;6.22;2.95;;;;;;;16.17;36.65;95236.28;4993090;28;20235;-77
2023/04/28 06:30:06;;;;;;;9.52;2.40;;;;;;;16.60;37.57;95251.69;4988719;28;20169;-77
2023/04/28 06:32:32;;;;;;;11.90;3.15;;;;;;;16.83;36.84;95264.09;4995145;28;20260;-77
2023/04/28 06:34:57;;;;;;;4.40;2.33;;;;;;;16.89;35.44;95255.97;4995351;28;20185;-77
2023/04/28 06:37:23;;;;;;;4.78;2.30;;;;;;;17.10;35.79;95258.97;4990392;28;20224;-77
2023/04/28 06:39:48;;;;;;;5.28;2.28;;;;;;;17.27;35.49;95260.59;4994991;28;20189;-77
2023/04/28 06:42:17;;;;;;;5.13;2.40;;;;;;;17.35;35.40;95257.53;4995290;28;20271;-77
2023/04/28 06:44:42;;;;;;;6.53;2.35;;;;;;;17.26;33.86;95244.84;4995365;28;20177;-77
2023/04/28 06:47:08;;;;;;;4.75;2.47;;;;;;;17.38;34.65;95261.56;4994764;28;20205;-78
2023/04/28 06:49:33;;;;;;;4.25;2.05;;;;;;;17.60;34.00;95256.28;4994888;28;20173;-75
2023/04/28 06:51:59;;;;;;;6.20;2.83;;;;;;;17.48;35.79;95256.38;4994935;28;20180;-76
2023/04/28 06:54:24;;;;;;;4.88;2.40;;;;;;;17.70;35.38;95265.25;4994720;28;20181;-77
2023/04/28 06:56:49;;;;;;;3.60;1.98;;;;;;;17.91;33.78;95254.88;4994877;28;20270;-78
2023/04/28 06:59:15;;;;;;;4.32;2.20;;;;;;;17.96;34.06;95258.41;4994712;28;20189;-77
2023/04/28 07:01:40;;;;;;;6.05;3.78;;;;;;;18.26;33.47;95252.66;4994906;28;20197;-78
2023/04/28 07:04:06;;;;;;;8.90;2.83;;;;;;;18.22;32.24;95230.22;4995294;28;20666;-77
2023/04/28 07:06:31;;;;;;;7.88;2.67;;;;;;;18.25;32.48;95221.72;4994732;28;20228;-77
2023/04/28 07:08:57;;;;;;;7.90;3.08;;;;;;;18.15;30.60;95252.78;4962393;28;20189;-78
2023/04/28 07:11:22;;;;;;;2.85;2.15;;;;;;;18.12;32.75;95230.09;4994157;28;20181;-81
2023/04/28 07:13:50;;;;;;;3.47;2.00;;;;;;;18.22;32.19;95222.22;4993854;28;20185;-79
2023/04/28 07:16:18;;;;;;;6.63;2.42;;;;;;;18.64;33.00;95249.13;4994828;28;20173;-80
2023/04/28 07:18:44;;;;;;;2.97;2.00;;;;;;;18.67;31.61;95237.16;4994702;28;20184;-81
2023/04/28 07:21:09;;;;;;;4.47;2.20;;;;;;;18.58;30.91;95204.78;4995238;28;20161;-81
2023/04/28 07:23:37;;;;;;;6.75;1.95;;;;;;;18.87;30.27;95240.00;4994671;28;20181;-82
2023/04/28 07:26:03;;;;;;;4.55;1.70;;;;;;;18.90;30.80;95236.81;4994564;28;20674;-82
2023/04/28 07:28:28;;;;;;;12.45;2.42;;;;;;;19.09;30.98;95247.94;4994257;28;20224;-78
2023/04/28 07:30:53;;;;;;;5.05;2.05;;;;;;;19.31;30.99;95239.81;4994337;28;20173;-78
2023/04/28 07:33:19;;;;;;;5.40;2.22;;;;;;;19.35;30.39;95241.75;4994381;28;20642;-76
2023/04/28 07:35:45;;;;;;;4.43;2.35;;;;;;;19.44;30.74;95252.75;4993923;28;20205;-75
2023/04/28 07:38:10;;;;;;;3.42;2.30;;;;;;;19.61;30.08;95245.44;4994093;28;20243;-77
2023/04/28 07:40:36;;;;;;;4.78;2.03;;;;;;;19.54;29.82;95242.19;4993985;28;20173;-77
2023/04/28 07:43:02;;;;;;;3.95;2.28;;;;;;;19.52;29.51;95234.41;4993920;28;20260;-77
2023/04/28 07:45:28;;;;;;;4.22;2.33;;;;;;;19.64;30.31;95239.56;4992915;28;20204;-77
2023/04/28 07:47:53;;;;;;;4.22;2.00;;;;;;;19.71;29.09;95240.16;4992184;28;20654;-77
2023/04/28 07:50:18;;;;;;;6.30;2.70;;;;;;;19.29;29.09;95241.94;4991134;28;20180;-77
2023/04/28 07:52:44;;;;;;;3.55;2.47;;;;;;;19.32;28.69;95241.44;4990427;28;20212;-77
2023/04/28 07:55:09;;;;;;;4.40;1.67;;;;;;;19.40;30.09;95233.75;4990375;28;20721;-77
2023/04/28 07:57:35;;;;;;;4.43;1.75;;;;;;;19.26;29.36;95211.25;4990061;28;20260;-77
2023/04/28 08:00:01;;;;;;;2.38;1.90;;;;;;;19.62;29.14;95228.34;4990132;28;20216;-77
2023/04/28 08:02:26;;;;;;;3.00;2.00;;;;;;;19.54;29.72;95231.50;4990167;28;20188;-77
2023/04/28 08:04:52;;;;;;;4.05;1.80;;;;;;;19.62;30.40;95235.56;4990996;28;20662;-77
2023/04/28 08:07:17;;;;;;;3.80;2.10;;;;;;;19.64;29.99;95225.38;4992034;28;20821;-77
2023/04/28 08:09:46;;;;;;;4.53;1.70;;;;;;;19.85;30.53;95238.63;4991249;28;20176;-77
2023/04/28 08:12:12;;;;;;;8.77;3.17;;;;;;;19.89;28.13;95237.03;4991939;28;20194;-77
2023/04/28 08:14:37;;;;;;;7.85;2.67;;;;;;;20.05;27.90;95239.81;4991909;28;20189;-77
2023/04/28 08:17:04;;;;;;;1.73;1.63;;;;;;;20.10;27.43;95242.47;4991598;28;20329;-77
2023/04/28 08:19:29;;;;;;;2.97;1.70;;;;;;;19.64;26.90;95234.22;4991608;28;20181;-77
2023/04/28 08:21:55;;;;;;;3.50;2.15;;;;;;;19.39;28.84;95232.16;4991731;28;20647;-77
2023/04/28 08:24:20;;;;;;;4.95;1.80;;;;;;;19.39;29.85;95239.34;4991523;28;20547;-77
2023/04/28 08:26:46;;;;;;;4.47;1.80;;;;;;;19.29;30.46;95209.91;4991482;28;20666;-77
2023/04/28 08:29:11;;;;;;;3.13;2.00;;;;;;;19.43;27.34;95243.13;5006475;28;20216;-77
2023/04/28 08:31:37;;;;;;;2.70;2.33;;;;;;;19.42;30.37;95233.50;5010902;28;20227;-77
2023/04/28 08:34:03;;;;;;;3.25;1.60;;;;;;;19.43;29.53;95225.25;5010945;28;20191;-77
2023/04/28 08:36:31;;;;;;;7.40;2.30;;;;;;;19.44;29.96;95226.06;5010876;28;20177;-77
2023/04/28 08:38:58;;;;;;;3.85;2.05;;;;;;;19.47;27.59;95229.03;5010821;28;20267;-77
2023/04/28 08:41:26;;;;;;;2.95;1.60;;;;;;;19.05;29.19;95199.59;5010828;28;20180;-77
2023/04/28 08:43:52;;;;;;;5.30;2.45;;;;;;;19.38;29.61;95230.53;5010870;28;20203;-77
2023/04/28 08:46:21;;;;;;;3.15;2.05;;;;;;;19.36;28.40;95226.53;5010789;28;20239;-77
2023/04/28 08:48:48;;;;;;;4.30;1.80;;;;;;;19.29;30.41;95223.25;5010700;28;20184;-77
2023/04/28 08:51:24;;;;;;;4.72;1.92;;;;;;;18.94;29.60;95195.22;5010643;28;20180;-77
2023/04/28 08:53:53;;;;;;;3.83;1.88;;;;;;;18.96;31.64;95219.78;5010904;28;20184;-77
2023/04/28 08:56:21;;;;;;;6.50;1.88;;;;;;;18.99;31.35;95215.81;5010887;28;20187;-77
2023/04/28 08:58:48;;;;;;;4.18;1.83;;;;;;;19.20;30.29;95218.38;5010791;28;20657;-77
2023/04/28 09:01:13;;;;;;;5.22;2.15;;;;;;;19.01;31.53;95209.19;5010611;28;20180;-78
2023/04/28 09:03:39;;;;;;;3.20;1.45;;;;;;;19.32;31.70;95220.09;5003038;28;20651;-77
2023/04/28 09:06:04;;;;;;;3.08;1.88;;;;;;;19.28;29.87;95211.00;4990761;28;20220;-77
2023/04/28 09:08:30;;;;;;;3.00;1.80;;;;;;;19.24;29.54;95216.03;4990772;28;20264;-77
2023/04/28 09:11:09;;;;;;;5.90;2.10;;;;;;;19.13;30.39;95196.44;4990761;28;20588;-78
2023/04/28 09:13:35;;;;;;;3.13;1.83;;;;;;;19.38;30.19;95200.34;4990720;28;20669;-78
2023/04/28 09:16:02;;;;;;;2.00;1.70;;;;;;;18.93;27.91;95201.66;4990767;28;20184;-77
2023/04/28 09:18:31;;;;;;;3.15;1.90;;;;;;;18.61;28.94;95203.47;4990734;28;20729;-77
2023/04/28 09:21:04;;;;;;;3.70;1.88;;;;;;;18.63;30.87;95201.34;5007287;28;20176;-77
2023/04/28 09:23:29;;;;;;;4.38;1.70;;;;;;;18.92;30.22;95199.22;5010213;28;20250;-77
2023/04/28 09:25:56;;;;;;;2.53;1.70;;;;;;;18.96;31.47;95195.78;5010302;28;20673;-77
2023/04/28 09:28:22;;;;;;;2.47;1.40;;;;;;;18.89;29.72;95173.84;5010046;28;20259;-77
2023/04/28 09:30:47;;;;;;;4.68;2.10;;;;;;;18.97;30.57;95185.91;5010306;28;20188;-77
2023/04/28 09:33:14;;;;;;;3.13;1.70;;;;;;;19.01;31.40;95184.34;5010078;28;20255;-77
2023/04/28 09:35:41;;;;;;;2.95;1.70;;;;;;;19.06;29.90;95177.19;5010823;28;20183;-77
2023/04/28 09:38:07;;;;;;;5.03;2.10;;;;;;;18.92;31.36;95172.53;5014330;28;20180;-77
2023/04/28 09:40:33;;;;;;;6.53;1.88;;;;;;;18.88;31.78;95174.91;5014026;28;20211;-77
2023/04/28 09:42:58;;;;;;;4.22;2.03;;;;;;;18.85;30.81;95172.75;5014318;28;20190;-77
2023/04/28 09:45:24;;;;;;;2.63;1.90;;;;;;;18.85;32.53;95170.09;5014020;28;20172;-77
2023/04/28 09:47:50;;;;;;;3.78;1.70;;;;;;;18.74;32.98;95171.88;5014208;28;20212;-77
2023/04/28 09:50:17;;;;;;;4.82;1.60;;;;;;;18.54;31.00;95142.31;5013868;28;20279;-77
2023/04/28 09:52:45;;;;;;;4.10;2.00;;;;;;;18.31;29.10;95127.44;5013938;28;20177;-77
2023/04/28 09:55:11;;;;;;;2.17;1.70;;;;;;;18.35;31.25;95157.84;5013971;28;20199;-77
2023/04/28 09:57:38;;;;;;;5.95;2.00;;;;;;;18.21;31.87;95161.19;5014339;28;20168;-77
2023/04/28 10:00:09;;;;;;;3.95;2.08;;;;;;;18.26;33.19;95161.22;5002856;28;20643;-77
2023/04/28 10:02:36;;;;;;;3.05;1.75;;;;;;;18.14;32.04;95134.72;5004307;28;20252;-77
2023/04/28 10:05:07;;;;;;;2.85;1.42;;;;;;;18.32;31.47;95155.72;4994230;28;20184;-77
2023/04/28 10:07:34;;;;;;;2.28;1.33;;;;;;;17.90;28.46;95141.41;5001750;28;20192;-77
2023/04/28 10:10:00;;;;;;;5.85;2.10;;;;;;;17.83;30.99;95143.41;5013701;28;20227;-77
2023/04/28 10:12:26;;;;;;;5.60;1.98;;;;;;;17.87;32.02;95144.56;5013599;28;20181;-77
2023/04/28 10:14:56;;;;;;;3.58;2.05;;;;;;;17.73;31.73;95130.78;5013612;28;20207;-78
2023/04/28 10:17:24;;;;;;;3.75;1.88;;;;;;;17.61;32.15;95124.78;5013460;28;20173;-77
2023/04/28 10:19:52;;;;;;;3.20;1.90;;;;;;;17.65;32.74;95137.34;5013486;28;20190;-77
2023/04/28 10:22:37;;;;;;;4.85;1.77;;;;;;;17.63;31.36;95128.84;5013442;28;20184;-77
2023/04/28 10:25:12;;;;;;;1.60;1.48;;;;;;;17.61;33.01;95130.91;4982606;28;20200;-77
2023/04/28 10:27:43;;;;;;;6.88;1.60;;;;;;;17.63;33.71;95128.03;5013482;28;20722;-77
2023/04/28 10:30:09;;;;;;;3.67;2.42;;;;;;;17.67;32.81;95129.13;5013185;28;20192;-77
2023/04/28 10:32:35;;;;;;;3.58;1.88;;;;;;;17.41;32.03;95104.00;5013317;28;20267;-77
2023/04/28 10:35:31;;;;;;;4.70;2.55;;;;;;;17.40;31.63;95114.91;5013289;28;20555;-77
2023/04/28 10:38:13;;;;;;;4.53;1.85;;;;;;;17.40;34.28;95107.72;4997468;28;20205;-77
2023/04/28 10:40:44;;;;;;;1.50;1.33;;;;;;;17.59;32.13;95119.69;4993366;28;20197;-78
2023/04/28 10:43:11;;;;;;;3.60;2.20;;;;;;;17.56;31.15;95104.19;4993212;28;20181;-77
2023/04/28 10:45:52;;;;;;;11.27;2.17;;;;;;;17.63;32.14;95104.88;5006551;28;20199;-77
2023/04/28 10:48:18;;;;;;;2.97;1.98;;;;;;;17.50;32.80;95097.22;5011590;28;20222;-77
2023/04/28 10:51:05;;;;;;;3.35;1.58;;;;;;;17.47;30.92;95094.25;5012853;28;20184;-77
2023/04/28 10:53:50;;;;;;;2.95;1.50;;;;;;;17.40;30.93;95097.06;5008953;28;20202;-77
2023/04/28 10:56:22;;;;;;;5.80;1.77;;;;;;;17.43;32.82;95093.13;5004326;28;20642;-78
2023/04/28 10:58:49;;;;;;;4.88;2.38;;;;;;;17.38;33.96;95069.13;5000730;28;20267;-78
2023/04/28 11:01:17;;;;;;;8.20;2.42;;;;;;;17.53;33.06;95095.91;5008781;28;20235;-78
2023/04/28 11:03:50;;;;;;;2.80;1.77;;;;;;;17.53;33.23;95085.28;5004980;28;20582;-78
2023/04/28 11:06:25;;;;;;;6.95;1.63;;;;;;;17.30;32.35;95062.34;5001071;28;20208;-77
2023/04/28 11:08:52;;;;;;;3.70;1.48;;;;;;;17.41;33.31;95082.72;4999669;28;20619;-78
2023/04/28 11:11:20;;;;;;;2.95;1.63;;;;;;;17.32;32.58;95068.22;5007879;28;20255;-78
2023/04/28 11:13:46;;;;;;;2.97;1.33;;;;;;;17.41;30.06;95065.94;5004506;28;20288;-78
2023/04/28 11:16:17;;;;;;;3.42;1.50;;;;;;;17.31;29.39;95056.78;5007463;28;20614;-78
2023/04/28 11:18:58;;;;;;;7.18;1.90;;;;;;;17.48;31.17;95072.69;4988123;28;20239;-78
2023/04/28 11:21:25;;;;;;;2.50;1.60;;;;;;;17.58;32.02;95075.47;5012537;28;20188;-77
2023/04/28 11:23:50;;;;;;;5.43;1.45;;;;;;;17.59;32.50;95063.78;5000473;28;20572;-78
2023/04/28 11:26:17;;;;;;;5.18;1.60;;;;;;;17.61;31.61;95071.53;5006779;28;20196;-77
2023/04/28 11:28:51;;;;;;;3.30;1.48;;;;;;;17.58;31.10;95062.16;5007345;28;20221;-78
2023/04/28 11:31:19;;;;;;;1.90;1.55;;;;;;;17.52;32.09;95059.69;5001458;28;20180;-77
2023/04/28 11:33:51;;;;;;;6.80;1.75;;;;;;;17.43;32.53;95045.22;5000032;28;20271;-76